If you wish to contribute or participate in the discussions about articles you are invited to join SKYbrary as a registered user

 Actions

Nador International

From SKYbrary Wiki

GMMW
Airport
ICAO: GMMW
Summary
Name Nador International
Region Africa
Territory Morocco MA.gif
Location Nador
Serving
Coordinates 34° 59' 21.00" N, 3° 1' 40.00" W
Runways
Designator Length Width Surface ROPS
8/26 3000 m9,842.52 ft
45 m147.638 ft
ASP /


METAR
Observation GMMW 212000Z 21003KT 9999 FEW020 BKN100 12/10 Q1006 NOSIG
Station Nador/Arwi
Date/Time 21 April 2019 20:00:00
Wind direction 210°
Wind speed 03 kts
Lowest cloud amount few clouds
Temperature 12°C
Dew point 10°C
Humidity 87%
QNH 1006 hPa
Weather condition n/a

Taouima Nador Airport

ICAO: GMMW IATA: NDR

Description

Nador International Airport is an airport serving Nador, a city in the Oriental region in Morocco. It is also known as Al Aroui International Airport or Arwi Airport.

Climatology

Dry-summer subtropical ”Mediterranean" climate (Köppen climate classification Csa) - characterized by hot, dry summers and mild winters. During the summer, subtropical high pressure cells dominate, making rainfall unlikely except for the occasional thunderstorm. In the winter, periodic storms bring rain.

Maps

Terrain

Loading map...

Airport Layout

Loading map...



Accidents & Serious Incidents at or in vicinity of GMMW

None on SKYbrary